sensor_id;sensor_type;location;lat;lon;timestamp;P1;durP1;ratioP1;P2;durP2;ratioP2
57565;SDS011;63999;43.882;-0.310;2022-10-16T00:01:11;7.72;;;1.92;;
57565;SDS011;63999;43.882;-0.310;2022-10-16T00:03:39;2.53;;;1.63;;
57565;SDS011;63999;43.882;-0.310;2022-10-16T00:06:05;5.07;;;1.55;;
57565;SDS011;63999;43.882;-0.310;2022-10-16T00:08:32;6.57;;;1.60;;
57565;SDS011;63999;43.882;-0.310;2022-10-16T00:11:02;4.35;;;1.63;;
57565;SDS011;63999;43.882;-0.310;2022-10-16T00:13:30;2.30;;;1.40;;
57565;SDS011;63999;43.882;-0.310;2022-10-16T00:15:58;5.35;;;1.83;;
57565;SDS011;63999;43.882;-0.310;2022-10-16T00:18:25;4.22;;;1.23;;
57565;SDS011;63999;43.882;-0.310;2022-10-16T00:20:52;4.13;;;1.25;;
57565;SDS011;63999;43.882;-0.310;2022-10-16T00:23:18;5.80;;;1.30;;
57565;SDS011;63999;43.882;-0.310;2022-10-16T00:25:44;3.20;;;1.50;;
57565;SDS011;63999;43.882;-0.310;2022-10-16T00:28:18;4.45;;;1.48;;
57565;SDS011;63999;43.882;-0.310;2022-10-16T00:30:44;2.67;;;1.45;;
57565;SDS011;63999;43.882;-0.310;2022-10-16T00:33:10;5.00;;;1.55;;
57565;SDS011;63999;43.882;-0.310;2022-10-16T00:35:36;5.72;;;1.50;;
57565;SDS011;63999;43.882;-0.310;2022-10-16T00:38:02;1.98;;;1.27;;
57565;SDS011;63999;43.882;-0.310;2022-10-16T00:40:27;2.75;;;1.30;;
57565;SDS011;63999;43.882;-0.310;2022-10-16T00:42:53;4.75;;;1.33;;
57565;SDS011;63999;43.882;-0.310;2022-10-16T00:45:19;2.38;;;1.20;;
57565;SDS011;63999;43.882;-0.310;2022-10-16T00:47:45;4.18;;;1.30;;
57565;SDS011;63999;43.882;-0.310;2022-10-16T00:50:26;4.75;;;1.48;;
57565;SDS011;63999;43.882;-0.310;2022-10-16T00:52:57;5.38;;;1.50;;
57565;SDS011;63999;43.882;-0.310;2022-10-16T00:55:25;2.92;;;1.50;;
57565;SDS011;63999;43.882;-0.310;2022-10-16T00:57:53;4.80;;;1.63;;
57565;SDS011;63999;43.882;-0.310;2022-10-16T01:00:23;3.58;;;1.60;;
57565;SDS011;63999;43.882;-0.310;2022-10-16T01:02:54;5.18;;;1.60;;
57565;SDS011;63999;43.882;-0.310;2022-10-16T01:05:22;5.25;;;1.60;;
57565;SDS011;63999;43.882;-0.310;2022-10-16T01:10:49;4.43;;;1.60;;
57565;SDS011;63999;43.882;-0.310;2022-10-16T01:13:27;2.15;;;1.50;;
57565;SDS011;63999;43.882;-0.310;2022-10-16T01:16:31;4.45;;;1.70;;
57565;SDS011;63999;43.882;-0.310;2022-10-16T01:19:09;6.65;;;1.58;;
57565;SDS011;63999;43.882;-0.310;2022-10-16T01:24:16;9.43;;;1.63;;
57565;SDS011;63999;43.882;-0.310;2022-10-16T01:29:50;7.53;;;1.65;;
57565;SDS011;63999;43.882;-0.310;2022-10-16T01:35:20;2.37;;;1.80;;
57565;SDS011;63999;43.882;-0.310;2022-10-16T01:40:27;4.45;;;1.65;;
57565;SDS011;63999;43.882;-0.310;2022-10-16T01:43:03;5.53;;;2.88;;
57565;SDS011;63999;43.882;-0.310;2022-10-16T01:45:33;5.68;;;1.90;;
57565;SDS011;63999;43.882;-0.310;2022-10-16T01:48:00;3.92;;;1.60;;
57565;SDS011;63999;43.882;-0.310;2022-10-16T01:50:30;10.90;;;1.85;;
57565;SDS011;63999;43.882;-0.310;2022-10-16T01:52:58;3.72;;;1.90;;
57565;SDS011;63999;43.882;-0.310;2022-10-16T01:55:28;2.75;;;1.60;;
57565;SDS011;63999;43.882;-0.310;2022-10-16T01:57:58;2.88;;;1.40;;
57565;SDS011;63999;43.882;-0.310;2022-10-16T02:00:26;4.82;;;1.75;;
57565;SDS011;63999;43.882;-0.310;2022-10-16T02:02:53;3.42;;;2.00;;
57565;SDS011;63999;43.882;-0.310;2022-10-16T02:05:25;3.08;;;1.77;;
57565;SDS011;63999;43.882;-0.310;2022-10-16T02:08:04;6.55;;;1.88;;
57565;SDS011;63999;43.882;-0.310;2022-10-16T02:10:30;2.22;;;1.60;;
57565;SDS011;63999;43.882;-0.310;2022-10-16T02:12:58;5.35;;;1.90;;
57565;SDS011;63999;43.882;-0.310;2022-10-16T02:15:28;4.10;;;1.75;;
57565;SDS011;63999;43.882;-0.310;2022-10-16T02:17:54;3.10;;;1.83;;
57565;SDS011;63999;43.882;-0.310;2022-10-16T02:20:21;4.43;;;1.73;;
57565;SDS011;63999;43.882;-0.310;2022-10-16T02:22:52;4.07;;;1.70;;
57565;SDS011;63999;43.882;-0.310;2022-10-16T02:25:25;4.55;;;2.00;;
57565;SDS011;63999;43.882;-0.310;2022-10-16T02:28:09;3.60;;;1.70;;
57565;SDS011;63999;43.882;-0.310;2022-10-16T02:30:46;3.70;;;1.63;;
57565;SDS011;63999;43.882;-0.310;2022-10-16T02:33:17;5.35;;;1.70;;
57565;SDS011;63999;43.882;-0.310;2022-10-16T02:35:46;5.78;;;1.75;;
57565;SDS011;63999;43.882;-0.310;2022-10-16T02:38:14;6.95;;;1.70;;
57565;SDS011;63999;43.882;-0.310;2022-10-16T02:40:41;7.07;;;1.70;;
57565;SDS011;63999;43.882;-0.310;2022-10-16T02:43:07;1.90;;;1.60;;
57565;SDS011;63999;43.882;-0.310;2022-10-16T02:45:34;6.22;;;1.48;;
57565;SDS011;63999;43.882;-0.310;2022-10-16T02:48:00;4.07;;;1.95;;
57565;SDS011;63999;43.882;-0.310;2022-10-16T02:50:26;4.60;;;1.80;;
57565;SDS011;63999;43.882;-0.310;2022-10-16T02:52:52;5.03;;;1.70;;
57565;SDS011;63999;43.882;-0.310;2022-10-16T02:55:18;6.15;;;1.65;;
57565;SDS011;63999;43.882;-0.310;2022-10-16T02:57:43;7.25;;;2.13;;
57565;SDS011;63999;43.882;-0.310;2022-10-16T03:00:10;4.60;;;1.50;;
57565;SDS011;63999;43.882;-0.310;2022-10-16T03:02:38;5.30;;;1.75;;
57565;SDS011;63999;43.882;-0.310;2022-10-16T03:05:04;4.30;;;1.80;;
57565;SDS011;63999;43.882;-0.310;2022-10-16T03:07:30;3.20;;;1.80;;
57565;SDS011;63999;43.882;-0.310;2022-10-16T03:09:56;3.30;;;1.85;;
57565;SDS011;63999;43.882;-0.310;2022-10-16T03:12:25;7.32;;;2.80;;
57565;SDS011;63999;43.882;-0.310;2022-10-16T03:14:51;6.00;;;1.90;;
57565;SDS011;63999;43.882;-0.310;2022-10-16T03:17:17;2.55;;;2.03;;
57565;SDS011;63999;43.882;-0.310;2022-10-16T03:19:42;5.57;;;1.90;;
57565;SDS011;63999;43.882;-0.310;2022-10-16T03:22:08;5.05;;;1.60;;
57565;SDS011;63999;43.882;-0.310;2022-10-16T03:24:34;4.03;;;1.77;;
57565;SDS011;63999;43.882;-0.310;2022-10-16T03:27:00;4.47;;;1.85;;
57565;SDS011;63999;43.882;-0.310;2022-10-16T03:29:25;3.83;;;1.50;;
57565;SDS011;63999;43.882;-0.310;2022-10-16T03:31:52;5.03;;;2.10;;
57565;SDS011;63999;43.882;-0.310;2022-10-16T03:34:18;4.75;;;1.85;;
57565;SDS011;63999;43.882;-0.310;2022-10-16T03:36:44;5.50;;;2.00;;
57565;SDS011;63999;43.882;-0.310;2022-10-16T03:39:09;5.60;;;2.10;;
57565;SDS011;63999;43.882;-0.310;2022-10-16T03:41:35;4.05;;;2.15;;
57565;SDS011;63999;43.882;-0.310;2022-10-16T03:44:01;2.42;;;2.00;;
57565;SDS011;63999;43.882;-0.310;2022-10-16T03:46:27;2.72;;;1.63;;
57565;SDS011;63999;43.882;-0.310;2022-10-16T03:48:52;5.05;;;2.03;;
57565;SDS011;63999;43.882;-0.310;2022-10-16T03:51:18;3.03;;;2.10;;
57565;SDS011;63999;43.882;-0.310;2022-10-16T03:53:44;7.38;;;2.53;;
57565;SDS011;63999;43.882;-0.310;2022-10-16T03:56:09;4.63;;;2.00;;
57565;SDS011;63999;43.882;-0.310;2022-10-16T03:58:35;3.92;;;1.90;;
57565;SDS011;63999;43.882;-0.310;2022-10-16T04:01:01;5.43;;;3.03;;
57565;SDS011;63999;43.882;-0.310;2022-10-16T04:03:27;5.05;;;2.13;;
57565;SDS011;63999;43.882;-0.310;2022-10-16T04:05:52;8.00;;;2.97;;
57565;SDS011;63999;43.882;-0.310;2022-10-16T04:08:18;4.95;;;2.35;;
57565;SDS011;63999;43.882;-0.310;2022-10-16T04:10:44;5.10;;;2.60;;
57565;SDS011;63999;43.882;-0.310;2022-10-16T04:13:10;5.75;;;2.80;;
57565;SDS011;63999;43.882;-0.310;2022-10-16T04:15:36;6.13;;;2.90;;
57565;SDS011;63999;43.882;-0.310;2022-10-16T04:18:03;5.07;;;2.97;;
57565;SDS011;63999;43.882;-0.310;2022-10-16T04:20:29;3.63;;;2.45;;
57565;SDS011;63999;43.882;-0.310;2022-10-16T04:22:55;4.28;;;2.60;;
57565;SDS011;63999;43.882;-0.310;2022-10-16T04:25:21;5.93;;;2.60;;
57565;SDS011;63999;43.882;-0.310;2022-10-16T04:27:47;8.00;;;2.80;;
57565;SDS011;63999;43.882;-0.310;2022-10-16T04:30:12;2.83;;;2.40;;
57565;SDS011;63999;43.882;-0.310;2022-10-16T04:32:38;3.47;;;2.00;;
57565;SDS011;63999;43.882;-0.310;2022-10-16T04:35:05;2.47;;;1.70;;
57565;SDS011;63999;43.882;-0.310;2022-10-16T04:37:31;3.25;;;1.88;;
57565;SDS011;63999;43.882;-0.310;2022-10-16T04:39:57;3.20;;;1.83;;
57565;SDS011;63999;43.882;-0.310;2022-10-16T04:42:23;4.95;;;2.67;;
57565;SDS011;63999;43.882;-0.310;2022-10-16T04:44:49;3.88;;;1.98;;
57565;SDS011;63999;43.882;-0.310;2022-10-16T04:47:15;5.30;;;2.30;;
57565;SDS011;63999;43.882;-0.310;2022-10-16T04:49:40;2.92;;;2.40;;
57565;SDS011;63999;43.882;-0.310;2022-10-16T04:52:06;4.82;;;2.40;;
57565;SDS011;63999;43.882;-0.310;2022-10-16T04:54:34;3.30;;;1.85;;
57565;SDS011;63999;43.882;-0.310;2022-10-16T04:57:00;2.88;;;2.13;;
57565;SDS011;63999;43.882;-0.310;2022-10-16T04:59:26;3.10;;;1.98;;
57565;SDS011;63999;43.882;-0.310;2022-10-16T05:01:52;4.05;;;1.98;;
57565;SDS011;63999;43.882;-0.310;2022-10-16T05:04:18;4.05;;;2.30;;
57565;SDS011;63999;43.882;-0.310;2022-10-16T05:06:44;5.22;;;2.10;;
57565;SDS011;63999;43.882;-0.310;2022-10-16T05:09:09;2.72;;;1.73;;
57565;SDS011;63999;43.882;-0.310;2022-10-16T05:11:36;4.28;;;2.10;;
57565;SDS011;63999;43.882;-0.310;2022-10-16T05:14:02;3.65;;;2.15;;
57565;SDS011;63999;43.882;-0.310;2022-10-16T05:16:29;4.90;;;2.92;;
57565;SDS011;63999;43.882;-0.310;2022-10-16T05:18:56;4.63;;;2.60;;
57565;SDS011;63999;43.882;-0.310;2022-10-16T05:21:22;5.93;;;2.80;;
57565;SDS011;63999;43.882;-0.310;2022-10-16T05:23:48;4.68;;;2.40;;
57565;SDS011;63999;43.882;-0.310;2022-10-16T05:26:14;6.32;;;2.58;;
57565;SDS011;63999;43.882;-0.310;2022-10-16T05:28:40;5.38;;;3.08;;
57565;SDS011;63999;43.882;-0.310;2022-10-16T05:31:09;5.18;;;2.67;;
57565;SDS011;63999;43.882;-0.310;2022-10-16T05:33:35;4.90;;;2.97;;
57565;SDS011;63999;43.882;-0.310;2022-10-16T05:36:08;5.15;;;2.55;;
57565;SDS011;63999;43.882;-0.310;2022-10-16T05:38:36;3.88;;;2.72;;
57565;SDS011;63999;43.882;-0.310;2022-10-16T05:41:02;6.13;;;2.58;;
57565;SDS011;63999;43.882;-0.310;2022-10-16T05:43:29;6.93;;;2.60;;
57565;SDS011;63999;43.882;-0.310;2022-10-16T05:46:00;5.88;;;2.50;;
57565;SDS011;63999;43.882;-0.310;2022-10-16T05:48:28;2.90;;;2.25;;
57565;SDS011;63999;43.882;-0.310;2022-10-16T05:50:58;4.18;;;2.22;;
57565;SDS011;63999;43.882;-0.310;2022-10-16T05:53:29;4.88;;;2.83;;
57565;SDS011;63999;43.882;-0.310;2022-10-16T05:55:56;6.18;;;3.00;;
57565;SDS011;63999;43.882;-0.310;2022-10-16T05:58:23;5.57;;;3.20;;
57565;SDS011;63999;43.882;-0.310;2022-10-16T06:00:56;4.97;;;3.05;;
57565;SDS011;63999;43.882;-0.310;2022-10-16T06:03:25;5.40;;;3.22;;
57565;SDS011;63999;43.882;-0.310;2022-10-16T06:05:51;4.22;;;3.10;;
57565;SDS011;63999;43.882;-0.310;2022-10-16T06:08:18;4.57;;;3.22;;
57565;SDS011;63999;43.882;-0.310;2022-10-16T06:10:45;4.97;;;3.20;;
57565;SDS011;63999;43.882;-0.310;2022-10-16T06:13:12;4.43;;;2.75;;
57565;SDS011;63999;43.882;-0.310;2022-10-16T06:15:39;4.97;;;3.00;;
57565;SDS011;63999;43.882;-0.310;2022-10-16T06:18:09;5.70;;;3.28;;
57565;SDS011;63999;43.882;-0.310;2022-10-16T06:20:35;5.47;;;3.33;;
57565;SDS011;63999;43.882;-0.310;2022-10-16T06:23:02;5.00;;;3.40;;
57565;SDS011;63999;43.882;-0.310;2022-10-16T06:25:29;5.50;;;3.25;;
57565;SDS011;63999;43.882;-0.310;2022-10-16T06:27:56;5.32;;;3.53;;
57565;SDS011;63999;43.882;-0.310;2022-10-16T06:30:22;5.05;;;3.25;;
57565;SDS011;63999;43.882;-0.310;2022-10-16T06:32:47;5.45;;;2.95;;
57565;SDS011;63999;43.882;-0.310;2022-10-16T06:35:13;5.63;;;3.22;;
57565;SDS011;63999;43.882;-0.310;2022-10-16T06:37:39;5.18;;;3.35;;
57565;SDS011;63999;43.882;-0.310;2022-10-16T06:40:05;5.35;;;3.10;;
57565;SDS011;63999;43.882;-0.310;2022-10-16T06:42:31;6.45;;;3.78;;
57565;SDS011;63999;43.882;-0.310;2022-10-16T06:44:59;5.15;;;3.13;;
57565;SDS011;63999;43.882;-0.310;2022-10-16T06:47:26;4.95;;;3.20;;
57565;SDS011;63999;43.882;-0.310;2022-10-16T06:49:52;9.43;;;4.00;;
57565;SDS011;63999;43.882;-0.310;2022-10-16T06:52:18;14.45;;;7.22;;
57565;SDS011;63999;43.882;-0.310;2022-10-16T06:54:44;9.68;;;5.97;;
57565;SDS011;63999;43.882;-0.310;2022-10-16T06:57:09;9.88;;;4.40;;
57565;SDS011;63999;43.882;-0.310;2022-10-16T06:59:35;6.20;;;4.03;;
57565;SDS011;63999;43.882;-0.310;2022-10-16T07:02:01;8.95;;;4.40;;
57565;SDS011;63999;43.882;-0.310;2022-10-16T07:04:26;7.65;;;3.75;;
57565;SDS011;63999;43.882;-0.310;2022-10-16T07:06:53;4.55;;;3.58;;
57565;SDS011;63999;43.882;-0.310;2022-10-16T07:09:23;5.28;;;3.55;;
57565;SDS011;63999;43.882;-0.310;2022-10-16T07:11:49;7.38;;;3.55;;
57565;SDS011;63999;43.882;-0.310;2022-10-16T07:14:17;5.57;;;3.47;;
57565;SDS011;63999;43.882;-0.310;2022-10-16T07:16:44;6.68;;;3.55;;
57565;SDS011;63999;43.882;-0.310;2022-10-16T07:19:10;5.63;;;3.40;;
57565;SDS011;63999;43.882;-0.310;2022-10-16T07:21:39;5.30;;;3.30;;
57565;SDS011;63999;43.882;-0.310;2022-10-16T07:24:06;5.25;;;3.17;;
57565;SDS011;63999;43.882;-0.310;2022-10-16T07:26:35;5.13;;;3.15;;
57565;SDS011;63999;43.882;-0.310;2022-10-16T07:29:04;6.88;;;3.13;;
57565;SDS011;63999;43.882;-0.310;2022-10-16T07:31:30;3.88;;;3.20;;
57565;SDS011;63999;43.882;-0.310;2022-10-16T07:33:57;4.93;;;2.88;;
57565;SDS011;63999;43.882;-0.310;2022-10-16T07:36:24;5.85;;;3.58;;
57565;SDS011;63999;43.882;-0.310;2022-10-16T07:38:50;6.32;;;3.78;;
57565;SDS011;63999;43.882;-0.310;2022-10-16T07:41:16;4.72;;;3.20;;
57565;SDS011;63999;43.882;-0.310;2022-10-16T07:43:47;6.38;;;3.72;;
57565;SDS011;63999;43.882;-0.310;2022-10-16T07:46:15;5.72;;;2.90;;
57565;SDS011;63999;43.882;-0.310;2022-10-16T07:48:42;4.13;;;3.20;;
57565;SDS011;63999;43.882;-0.310;2022-10-16T07:51:11;5.32;;;3.20;;
57565;SDS011;63999;43.882;-0.310;2022-10-16T07:53:37;5.07;;;3.25;;
57565;SDS011;63999;43.882;-0.310;2022-10-16T07:56:04;4.82;;;3.08;;
57565;SDS011;63999;43.882;-0.310;2022-10-16T07:58:31;4.32;;;2.83;;
57565;SDS011;63999;43.882;-0.310;2022-10-16T08:00:58;3.67;;;2.72;;
57565;SDS011;63999;43.882;-0.310;2022-10-16T08:03:24;6.20;;;3.13;;
57565;SDS011;63999;43.882;-0.310;2022-10-16T08:05:50;4.68;;;2.95;;
57565;SDS011;63999;43.882;-0.310;2022-10-16T08:08:17;6.70;;;3.40;;
57565;SDS011;63999;43.882;-0.310;2022-10-16T08:10:43;4.47;;;3.40;;
57565;SDS011;63999;43.882;-0.310;2022-10-16T08:13:09;7.45;;;3.00;;
57565;SDS011;63999;43.882;-0.310;2022-10-16T08:15:35;5.63;;;3.15;;
57565;SDS011;63999;43.882;-0.310;2022-10-16T08:18:01;4.53;;;2.70;;
57565;SDS011;63999;43.882;-0.310;2022-10-16T08:20:29;5.10;;;2.70;;
57565;SDS011;63999;43.882;-0.310;2022-10-16T08:22:57;8.20;;;3.03;;
57565;SDS011;63999;43.882;-0.310;2022-10-16T08:25:23;7.22;;;2.85;;
57565;SDS011;63999;43.882;-0.310;2022-10-16T08:27:49;6.07;;;3.20;;
57565;SDS011;63999;43.882;-0.310;2022-10-16T08:30:16;4.32;;;2.85;;
57565;SDS011;63999;43.882;-0.310;2022-10-16T08:32:43;5.90;;;3.13;;
57565;SDS011;63999;43.882;-0.310;2022-10-16T08:35:10;4.97;;;2.95;;
57565;SDS011;63999;43.882;-0.310;2022-10-16T08:37:37;9.80;;;3.10;;
57565;SDS011;63999;43.882;-0.310;2022-10-16T08:40:03;9.23;;;3.15;;
57565;SDS011;63999;43.882;-0.310;2022-10-16T08:42:45;5.05;;;2.92;;
57565;SDS011;63999;43.882;-0.310;2022-10-16T08:48:15;6.88;;;3.20;;
57565;SDS011;63999;43.882;-0.310;2022-10-16T08:50:52;6.25;;;2.75;;
57565;SDS011;63999;43.882;-0.310;2022-10-16T08:53:26;5.20;;;2.75;;
57565;SDS011;63999;43.882;-0.310;2022-10-16T08:55:56;4.60;;;3.00;;
57565;SDS011;63999;43.882;-0.310;2022-10-16T08:58:27;3.20;;;2.35;;
57565;SDS011;63999;43.882;-0.310;2022-10-16T09:00:55;9.75;;;2.42;;
57565;SDS011;63999;43.882;-0.310;2022-10-16T09:08:56;5.95;;;2.65;;
57565;SDS011;63999;43.882;-0.310;2022-10-16T09:16:57;5.13;;;2.45;;
57565;SDS011;63999;43.882;-0.310;2022-10-16T09:19:50;6.70;;;3.08;;
57565;SDS011;63999;43.882;-0.310;2022-10-16T09:22:25;4.45;;;2.80;;
57565;SDS011;63999;43.882;-0.310;2022-10-16T09:24:54;6.03;;;2.72;;
57565;SDS011;63999;43.882;-0.310;2022-10-16T09:27:24;5.05;;;2.78;;
57565;SDS011;63999;43.882;-0.310;2022-10-16T09:29:51;3.65;;;2.63;;
57565;SDS011;63999;43.882;-0.310;2022-10-16T09:32:18;4.72;;;2.85;;
57565;SDS011;63999;43.882;-0.310;2022-10-16T09:34:47;3.70;;;2.60;;
57565;SDS011;63999;43.882;-0.310;2022-10-16T09:37:17;5.82;;;3.00;;
57565;SDS011;63999;43.882;-0.310;2022-10-16T09:39:48;2.92;;;2.60;;
57565;SDS011;63999;43.882;-0.310;2022-10-16T09:42:20;6.43;;;3.13;;
57565;SDS011;63999;43.882;-0.310;2022-10-16T09:44:52;5.38;;;2.95;;
57565;SDS011;63999;43.882;-0.310;2022-10-16T09:47:22;4.43;;;2.90;;
57565;SDS011;63999;43.882;-0.310;2022-10-16T09:49:51;4.35;;;2.80;;
57565;SDS011;63999;43.882;-0.310;2022-10-16T09:52:23;4.93;;;2.63;;
57565;SDS011;63999;43.882;-0.310;2022-10-16T09:54:50;3.72;;;2.42;;
57565;SDS011;63999;43.882;-0.310;2022-10-16T09:57:20;3.53;;;2.60;;
57565;SDS011;63999;43.882;-0.310;2022-10-16T09:59:50;4.95;;;3.10;;
57565;SDS011;63999;43.882;-0.310;2022-10-16T10:02:39;2.90;;;2.60;;
57565;SDS011;63999;43.882;-0.310;2022-10-16T10:05:17;2.85;;;2.55;;
57565;SDS011;63999;43.882;-0.310;2022-10-16T10:07:57;5.13;;;2.40;;
57565;SDS011;63999;43.882;-0.310;2022-10-16T10:10:28;7.03;;;2.65;;
57565;SDS011;63999;43.882;-0.310;2022-10-16T10:12:56;4.80;;;2.60;;
57565;SDS011;63999;43.882;-0.310;2022-10-16T10:15:22;4.28;;;2.75;;
57565;SDS011;63999;43.882;-0.310;2022-10-16T10:20:26;4.82;;;2.92;;
57565;SDS011;63999;43.882;-0.310;2022-10-16T10:22:55;3.53;;;2.38;;
57565;SDS011;63999;43.882;-0.310;2022-10-16T10:28:18;3.53;;;2.72;;
57565;SDS011;63999;43.882;-0.310;2022-10-16T10:30:57;7.13;;;2.45;;
57565;SDS011;63999;43.882;-0.310;2022-10-16T10:36:12;3.30;;;2.60;;
57565;SDS011;63999;43.882;-0.310;2022-10-16T10:38:59;4.40;;;3.22;;
57565;SDS011;63999;43.882;-0.310;2022-10-16T10:44:23;4.85;;;2.90;;
57565;SDS011;63999;43.882;-0.310;2022-10-16T10:46:56;4.25;;;2.65;;
57565;SDS011;63999;43.882;-0.310;2022-10-16T10:58:02;3.85;;;2.60;;
57565;SDS011;63999;43.882;-0.310;2022-10-16T11:08:50;3.17;;;2.40;;
57565;SDS011;63999;43.882;-0.310;2022-10-16T11:11:35;3.45;;;2.65;;
57565;SDS011;63999;43.882;-0.310;2022-10-16T11:17:05;4.63;;;2.30;;
57565;SDS011;63999;43.882;-0.310;2022-10-16T11:22:54;3.72;;;2.70;;
57565;SDS011;63999;43.882;-0.310;2022-10-16T11:25:49;3.55;;;2.33;;
57565;SDS011;63999;43.882;-0.310;2022-10-16T11:36:01;5.03;;;2.38;;
57565;SDS011;63999;43.882;-0.310;2022-10-16T11:41:39;3.00;;;2.42;;
57565;SDS011;63999;43.882;-0.310;2022-10-16T11:55:34;3.47;;;2.35;;
57565;SDS011;63999;43.882;-0.310;2022-10-16T11:58:05;4.57;;;2.50;;
57565;SDS011;63999;43.882;-0.310;2022-10-16T12:00:36;6.53;;;2.38;;
57565;SDS011;63999;43.882;-0.310;2022-10-16T12:08:27;4.78;;;2.60;;
57565;SDS011;63999;43.882;-0.310;2022-10-16T12:10:53;5.05;;;2.60;;
57565;SDS011;63999;43.882;-0.310;2022-10-16T12:13:35;3.40;;;2.30;;
57565;SDS011;63999;43.882;-0.310;2022-10-16T12:18:37;3.70;;;2.22;;
57565;SDS011;63999;43.882;-0.310;2022-10-16T12:21:04;3.20;;;2.28;;
57565;SDS011;63999;43.882;-0.310;2022-10-16T12:23:54;2.88;;;2.30;;
57565;SDS011;63999;43.882;-0.310;2022-10-16T12:28:52;4.10;;;2.20;;
57565;SDS011;63999;43.882;-0.310;2022-10-16T12:31:19;3.78;;;2.10;;
57565;SDS011;63999;43.882;-0.310;2022-10-16T12:36:53;2.35;;;2.10;;
57565;SDS011;63999;43.882;-0.310;2022-10-16T12:39:21;4.43;;;2.17;;
57565;SDS011;63999;43.882;-0.310;2022-10-16T12:42:05;5.07;;;2.50;;
57565;SDS011;63999;43.882;-0.310;2022-10-16T12:44:50;3.75;;;2.10;;
57565;SDS011;63999;43.882;-0.310;2022-10-16T12:47:23;4.47;;;2.75;;
57565;SDS011;63999;43.882;-0.310;2022-10-16T12:49:54;3.17;;;2.30;;
57565;SDS011;63999;43.882;-0.310;2022-10-16T12:54:55;2.83;;;2.22;;
57565;SDS011;63999;43.882;-0.310;2022-10-16T13:00:12;4.03;;;2.50;;
57565;SDS011;63999;43.882;-0.310;2022-10-16T13:08:41;4.38;;;2.33;;
57565;SDS011;63999;43.882;-0.310;2022-10-16T13:11:27;4.07;;;2.30;;
57565;SDS011;63999;43.882;-0.310;2022-10-16T13:16:53;3.45;;;2.20;;
57565;SDS011;63999;43.882;-0.310;2022-10-16T13:22:08;4.60;;;1.98;;
57565;SDS011;63999;43.882;-0.310;2022-10-16T13:32:47;3.40;;;1.95;;
57565;SDS011;63999;43.882;-0.310;2022-10-16T13:35:26;4.90;;;2.40;;
57565;SDS011;63999;43.882;-0.310;2022-10-16T13:40:47;5.38;;;2.00;;
57565;SDS011;63999;43.882;-0.310;2022-10-16T13:43:36;3.25;;;2.20;;
57565;SDS011;63999;43.882;-0.310;2022-10-16T13:46:06;2.95;;;1.90;;
57565;SDS011;63999;43.882;-0.310;2022-10-16T13:48:37;3.22;;;2.30;;
57565;SDS011;63999;43.882;-0.310;2022-10-16T13:53:32;2.85;;;2.13;;
57565;SDS011;63999;43.882;-0.310;2022-10-16T13:55:59;3.17;;;2.10;;
57565;SDS011;63999;43.882;-0.310;2022-10-16T13:58:27;3.67;;;2.20;;
57565;SDS011;63999;43.882;-0.310;2022-10-16T14:00:53;4.63;;;2.30;;
57565;SDS011;63999;43.882;-0.310;2022-10-16T14:03:21;4.85;;;2.33;;
57565;SDS011;63999;43.882;-0.310;2022-10-16T14:08:21;2.70;;;2.13;;
57565;SDS011;63999;43.882;-0.310;2022-10-16T14:10:52;5.07;;;2.10;;
57565;SDS011;63999;43.882;-0.310;2022-10-16T14:15:51;4.50;;;2.58;;
57565;SDS011;63999;43.882;-0.310;2022-10-16T14:18:23;5.20;;;2.47;;
57565;SDS011;63999;43.882;-0.310;2022-10-16T14:20:51;3.53;;;2.38;;
57565;SDS011;63999;43.882;-0.310;2022-10-16T14:28:34;4.45;;;2.13;;
57565;SDS011;63999;43.882;-0.310;2022-10-16T14:31:02;2.88;;;2.03;;
57565;SDS011;63999;43.882;-0.310;2022-10-16T14:33:49;3.13;;;2.10;;
57565;SDS011;63999;43.882;-0.310;2022-10-16T14:36:15;3.55;;;2.30;;
57565;SDS011;63999;43.882;-0.310;2022-10-16T14:38:57;3.58;;;2.22;;
57565;SDS011;63999;43.882;-0.310;2022-10-16T14:41:32;3.35;;;2.00;;
57565;SDS011;63999;43.882;-0.310;2022-10-16T14:44:09;4.57;;;2.40;;
57565;SDS011;63999;43.882;-0.310;2022-10-16T14:46:37;3.28;;;2.10;;
57565;SDS011;63999;43.882;-0.310;2022-10-16T14:51:37;4.85;;;2.20;;
57565;SDS011;63999;43.882;-0.310;2022-10-16T14:54:07;3.45;;;2.20;;
57565;SDS011;63999;43.882;-0.310;2022-10-16T14:59:28;3.63;;;2.28;;
57565;SDS011;63999;43.882;-0.310;2022-10-16T15:02:09;2.55;;;2.00;;
57565;SDS011;63999;43.882;-0.310;2022-10-16T15:04:53;3.65;;;2.30;;
57565;SDS011;63999;43.882;-0.310;2022-10-16T15:07:19;3.42;;;2.05;;
57565;SDS011;63999;43.882;-0.310;2022-10-16T15:09:45;4.03;;;2.35;;
57565;SDS011;63999;43.882;-0.310;2022-10-16T15:12:11;3.63;;;2.13;;
57565;SDS011;63999;43.882;-0.310;2022-10-16T15:14:37;2.85;;;2.20;;
57565;SDS011;63999;43.882;-0.310;2022-10-16T15:17:03;5.35;;;2.40;;
57565;SDS011;63999;43.882;-0.310;2022-10-16T15:19:29;2.60;;;2.10;;
57565;SDS011;63999;43.882;-0.310;2022-10-16T15:21:55;3.95;;;2.10;;
57565;SDS011;63999;43.882;-0.310;2022-10-16T15:24:21;2.72;;;2.20;;
57565;SDS011;63999;43.882;-0.310;2022-10-16T15:26:47;5.47;;;2.20;;
57565;SDS011;63999;43.882;-0.310;2022-10-16T15:29:14;2.85;;;2.10;;
57565;SDS011;63999;43.882;-0.310;2022-10-16T15:31:40;4.43;;;2.40;;
57565;SDS011;63999;43.882;-0.310;2022-10-16T15:34:12;9.93;;;2.53;;
57565;SDS011;63999;43.882;-0.310;2022-10-16T15:36:38;4.07;;;2.15;;
57565;SDS011;63999;43.882;-0.310;2022-10-16T15:39:05;3.20;;;2.28;;
57565;SDS011;63999;43.882;-0.310;2022-10-16T15:41:39;4.63;;;2.40;;
57565;SDS011;63999;43.882;-0.310;2022-10-16T15:44:06;3.67;;;2.13;;
57565;SDS011;63999;43.882;-0.310;2022-10-16T15:46:32;5.45;;;2.42;;
57565;SDS011;63999;43.882;-0.310;2022-10-16T15:48:59;3.47;;;2.58;;
57565;SDS011;63999;43.882;-0.310;2022-10-16T15:51:26;3.42;;;2.30;;
57565;SDS011;63999;43.882;-0.310;2022-10-16T15:53:55;4.20;;;2.70;;
57565;SDS011;63999;43.882;-0.310;2022-10-16T15:56:22;4.50;;;2.65;;
57565;SDS011;63999;43.882;-0.310;2022-10-16T15:58:50;4.82;;;2.55;;
57565;SDS011;63999;43.882;-0.310;2022-10-16T16:01:16;3.97;;;2.10;;
57565;SDS011;63999;43.882;-0.310;2022-10-16T16:03:42;3.97;;;2.38;;
57565;SDS011;63999;43.882;-0.310;2022-10-16T16:06:10;5.18;;;2.60;;
57565;SDS011;63999;43.882;-0.310;2022-10-16T16:08:37;5.30;;;2.60;;
57565;SDS011;63999;43.882;-0.310;2022-10-16T16:11:07;3.85;;;2.55;;
57565;SDS011;63999;43.882;-0.310;2022-10-16T16:13:34;4.07;;;2.63;;
57565;SDS011;63999;43.882;-0.310;2022-10-16T16:16:05;4.35;;;2.80;;
57565;SDS011;63999;43.882;-0.310;2022-10-16T16:18:35;3.75;;;2.40;;
57565;SDS011;63999;43.882;-0.310;2022-10-16T16:21:03;3.92;;;2.70;;
57565;SDS011;63999;43.882;-0.310;2022-10-16T16:23:29;5.20;;;3.00;;
57565;SDS011;63999;43.882;-0.310;2022-10-16T16:26:06;4.07;;;2.90;;
57565;SDS011;63999;43.882;-0.310;2022-10-16T16:28:41;9.40;;;2.83;;
57565;SDS011;63999;43.882;-0.310;2022-10-16T16:31:07;4.20;;;2.70;;
57565;SDS011;63999;43.882;-0.310;2022-10-16T16:33:34;5.47;;;2.50;;
57565;SDS011;63999;43.882;-0.310;2022-10-16T16:36:03;4.07;;;2.78;;
57565;SDS011;63999;43.882;-0.310;2022-10-16T16:38:31;4.88;;;2.70;;
57565;SDS011;63999;43.882;-0.310;2022-10-16T16:40:57;3.00;;;2.42;;
57565;SDS011;63999;43.882;-0.310;2022-10-16T16:43:26;2.95;;;2.65;;
57565;SDS011;63999;43.882;-0.310;2022-10-16T16:45:53;3.83;;;2.67;;
57565;SDS011;63999;43.882;-0.310;2022-10-16T16:48:19;2.72;;;2.30;;
57565;SDS011;63999;43.882;-0.310;2022-10-16T16:50:46;4.65;;;2.35;;
57565;SDS011;63999;43.882;-0.310;2022-10-16T16:53:11;2.67;;;2.17;;
57565;SDS011;63999;43.882;-0.310;2022-10-16T16:55:37;3.67;;;2.60;;
57565;SDS011;63999;43.882;-0.310;2022-10-16T16:58:04;3.15;;;2.05;;
57565;SDS011;63999;43.882;-0.310;2022-10-16T17:00:30;3.28;;;2.42;;
57565;SDS011;63999;43.882;-0.310;2022-10-16T17:02:57;2.92;;;2.47;;
57565;SDS011;63999;43.882;-0.310;2022-10-16T17:05:22;2.90;;;2.60;;
57565;SDS011;63999;43.882;-0.310;2022-10-16T17:07:48;5.18;;;2.33;;